Sunday, August 19, 2018, 5:54 PM GMT
Back to Local

CWRZ, Cap D'Espoir , Que.

Location: , , Canada Lat: 48.417
Local Time: 5:54 PM GMT (17:54 GMT) Lon: -64.317
Time Zone: GMT Elev: 52 ft

Show me the last for .
Show Coded

Time T Td Feel RH Dir Speed Gust Alt SLP Vis Weather Sky Remarks
2018-08-19 17:00 63 53 - 70 80° 13 - - 30.14 0 None
2018-08-19 16:00 63 54 - 73 70° 12 - - 30.13 0 None
2018-08-19 15:00 63 53 - 68 60° 14 - - 30.12 0 None
2018-08-19 14:00 63 52 - 67 50° 14 - - 30.12 0 None
2018-08-19 13:00 63 51 - 64 30° 12 - - 30.11 0 None
2018-08-19 12:00 62 51 - 65 30° 12 - - 30.09 0 None
2018-08-19 11:00 61 48 - 60 10° 13 - - 30.07 0 None
2018-08-19 10:00 60 46 - 58 360° 14 - - 30.05 0 Peak wind: 19 mph (17 kts) from 10° at 03 min
2018-08-19 09:00 59 48 - 66 350° 10 - - 30.02 0 None
2018-08-19 08:00 59 49 - 70 10° 10 - - 30.00 0 None
2018-08-19 07:00 60 51 - 73 10° 10 - - 29.98 0 Peak wind: 21 mph (19 kts) from 0° at 30 min
2018-08-19 06:00 60 53 - 75 360° 13 - - 29.96 0 None
2018-08-19 05:00 61 53 - 75 10° 13 18 - 29.95 0 Peak wind: 19 mph (17 kts) from 0° at 33 min
2018-08-19 04:00 61 53 - 74 360° 12 17 - 29.94 0 None
2018-08-19 03:00 62 53 - 72 10° 7 - - 29.93 0 None
2018-08-19 02:00 62 55 - 78 10° 6 - - 29.93 0 None
2018-08-19 01:00 61 55 - 81 20° 7 - - 29.91 0 None
2018-08-19 00:00 63 55 - 75 30° 8 - - 29.90 0 None
2018-08-18 23:00 61 57 - 86 70° 9 - - 29.88 0 None
2018-08-18 22:00 62 57 - 82 80° 13 - - 29.87 0 None
2018-08-18 21:00 63 57 - 81 40° 10 - - 29.87 0 None
2018-08-18 20:00 63 56 - 78 70° 14 - - 29.86 0 None
2018-08-18 18:00 64 56 - 74 50° 17 - - 29.87 0 Peak wind: 19 mph (17 kts) from 50° at 52 min

Support USWX by starting your Amazon purchase here.